Henderson Harbor, New York
Current Conditions -  °F | °C
As of 5:56 AM on Wednesday 26 Nov 2014 (Local Time) from KART Reporting Station
Overcast Overcast  
Wind Chill: 30°   Ceiling: 4000
Heat Index: 34°   Visibility: 10mi
Dew Point: 23°   Wind: 5mph
Humidity: 64%   Direction: 20°NNE
Pressure: 30.2"   Gusts: NA
Location:  43.86°N, 76.2°W
Report Text: KART 261056Z AUTO 02004KT 10SM OVC040 01/M05 A3020 RMK AO2 SLP231 T00111050
Loading
Personal Weather Stations






























Interactive Weather Map New forecast layout! Learn more

10-Day Weather Forecast

Advertisements
Track Severe Weather on mobile